HECP 230700Z 06010KT CAVOK 26/18 Q1013 NOSIG
From batch tds/metars/production/2022/9/23/h07_m55_metars.cache.csv.gz
Observed at (13 days ago)
Identifier HECP
talk